Time;durP1;ratioP1;P1;durP2;ratioP2;P2;SDS_P1;SDS_P2;PMS_P1;PMS_P2;Temp;Humidity;BMP_temperature;BMP_pressure;BME280_temperature;BME280_humidity;BME280_pressure;Samples;Min_cycle;Max_cycle;Signal;HPM_P1;HPM_P2
2022/11/28 00:02:11;;;;;;;3.92;2.05;;;;;;;1.49;100.00;95218.03;5065041;28;20203;-72
2022/11/28 00:04:39;;;;;;;10.13;3.95;;;;;;;1.41;100.00;95227.31;5065223;28;20199;-72
2022/11/28 00:07:06;;;;;;;15.05;9.48;;;;;;;1.49;100.00;95230.56;5051147;28;20739;-72
2022/11/28 00:09:32;;;;;;;15.00;8.70;;;;;;;1.46;100.00;95225.75;5064563;28;20203;-71
2022/11/28 00:11:59;;;;;;;22.55;10.98;;;;;;;1.45;100.00;95226.81;5059252;28;20203;-71
2022/11/28 00:14:26;;;;;;;17.33;9.13;;;;;;;1.52;100.00;95228.19;5057680;28;20253;-71
2022/11/28 00:16:53;;;;;;;21.83;9.98;;;;;;;1.54;100.00;95222.59;5060673;28;20211;-71
2022/11/28 00:19:20;;;;;;;15.95;9.77;;;;;;;1.51;100.00;95225.75;5058798;28;20862;-71
2022/11/28 00:21:48;;;;;;;15.23;9.07;;;;;;;1.42;100.00;95223.59;5063678;28;20265;-71
2022/11/28 00:24:14;;;;;;;15.48;8.82;;;;;;;1.50;100.00;95213.50;5065172;28;20207;-71
2022/11/28 00:26:42;;;;;;;16.52;9.02;;;;;;;1.52;100.00;95224.72;5060234;28;20249;-71
2022/11/28 00:29:10;;;;;;;16.23;9.18;;;;;;;1.47;100.00;95222.03;5058357;28;20254;-71
2022/11/28 00:31:41;;;;;;;13.57;7.13;;;;;;;1.41;100.00;95219.31;5062975;28;20215;-71
2022/11/28 00:34:08;;;;;;;14.73;8.55;;;;;;;1.43;100.00;95219.84;5064873;28;20223;-72
2022/11/28 00:36:35;;;;;;;17.40;8.60;;;;;;;1.37;100.00;95223.53;5061510;28;20244;-72
2022/11/28 00:39:04;;;;;;;17.55;9.38;;;;;;;1.43;100.00;95224.38;5058012;28;20211;-71
2022/11/28 00:41:34;;;;;;;18.25;9.82;;;;;;;1.37;100.00;95220.88;5062030;28;20207;-71
2022/11/28 00:44:01;;;;;;;16.08;8.60;;;;;;;1.41;100.00;95221.97;5064858;28;20207;-71
2022/11/28 00:46:28;;;;;;;15.65;8.98;;;;;;;1.38;100.00;95211.00;5061805;28;20689;-71
2022/11/28 00:48:54;;;;;;;16.40;8.35;;;;;;;1.44;100.00;95220.66;5059398;28;20287;-71
2022/11/28 00:51:23;;;;;;;13.88;8.05;;;;;;;1.41;100.00;95215.81;5059751;28;20203;-71
2022/11/28 00:53:53;;;;;;;16.02;8.75;;;;;;;1.43;100.00;95219.84;5057328;28;20276;-71
2022/11/28 00:56:23;;;;;;;14.18;8.23;;;;;;;1.41;100.00;95221.97;5058310;28;20724;-72
2022/11/28 00:58:50;;;;;;;14.55;7.22;;;;;;;1.45;100.00;95210.78;5051656;28;20204;-71
2022/11/28 01:01:20;;;;;;;15.13;8.23;;;;;;;1.43;100.00;95219.06;5051928;28;20195;-72
2022/11/28 01:03:48;;;;;;;13.35;7.45;;;;;;;1.30;100.00;95222.97;5058334;28;20195;-72
2022/11/28 01:06:21;;;;;;;13.13;8.13;;;;;;;1.26;100.00;95224.50;5056978;28;20245;-73
2022/11/28 01:08:48;;;;;;;12.43;6.90;;;;;;;1.36;100.00;95219.28;5062734;28;20686;-72
2022/11/28 01:11:15;;;;;;;14.48;6.93;;;;;;;1.33;100.00;95224.31;5053179;28;20605;-71
2022/11/28 01:13:43;;;;;;;10.30;6.57;;;;;;;1.31;100.00;95211.22;5062493;28;20223;-71
2022/11/28 01:16:10;;;;;;;14.30;7.78;;;;;;;1.41;100.00;95211.28;5064328;28;20198;-72
2022/11/28 01:18:37;;;;;;;1.85;1.25;;;;;;;1.31;100.00;95211.22;5060523;28;20642;-72
2022/11/28 01:21:04;;;;;;;6.35;2.38;;;;;;;1.19;100.00;95209.78;5054103;28;20204;-71
2022/11/28 01:23:31;;;;;;;9.07;4.53;;;;;;;1.23;100.00;95214.34;5050381;28;20289;-71
2022/11/28 01:25:58;;;;;;;4.55;1.88;;;;;;;1.25;100.00;95211.41;5063626;28;20879;-71
2022/11/28 01:28:24;;;;;;;2.17;1.58;;;;;;;1.23;100.00;95209.00;5059590;28;20595;-72
2022/11/28 01:30:53;;;;;;;2.97;1.67;;;;;;;1.15;100.00;95200.69;5066968;28;20270;-72
2022/11/28 01:33:19;;;;;;;3.35;2.13;;;;;;;0.98;100.00;95201.59;5060537;28;20243;-71
2022/11/28 01:35:55;;;;;;;2.40;2.13;;;;;;;1.11;100.00;95200.38;5057249;28;20199;-71
2022/11/28 01:38:22;;;;;;;4.82;2.70;;;;;;;1.17;100.00;95209.25;5058991;28;20199;-71
2022/11/28 01:40:50;;;;;;;3.08;1.75;;;;;;;1.25;100.00;95206.91;5063874;28;20203;-71
2022/11/28 01:43:17;;;;;;;2.25;1.30;;;;;;;1.24;100.00;95194.59;5061967;28;20257;-71
2022/11/28 01:45:45;;;;;;;2.00;1.67;;;;;;;1.28;100.00;95190.38;5051003;28;20208;-71
2022/11/28 01:48:17;;;;;;;3.70;1.60;;;;;;;1.21;100.00;95194.34;5062424;28;20234;-71
2022/11/28 01:50:48;;;;;;;1.40;1.15;;;;;;;1.20;100.00;95192.72;5050488;28;20245;-72
2022/11/28 01:53:16;;;;;;;3.88;1.45;;;;;;;1.29;100.00;95192.00;5064420;28;20282;-71
2022/11/28 01:55:50;;;;;;;0.98;0.93;;;;;;;1.21;100.00;95189.81;5062845;28;20292;-71
2022/11/28 01:58:17;;;;;;;1.40;1.30;;;;;;;1.13;100.00;95186.78;5063208;28;20198;-73
2022/11/28 02:00:44;;;;;;;12.35;5.80;;;;;;;1.17;100.00;95195.91;5059604;28;20203;-72
2022/11/28 02:03:17;;;;;;;10.93;6.07;;;;;;;1.11;100.00;95194.22;5056262;28;20203;-72
2022/11/28 02:05:45;;;;;;;10.20;5.43;;;;;;;1.19;100.00;95186.59;5059172;28;20192;-71
2022/11/28 02:08:11;;;;;;;8.20;5.20;;;;;;;1.17;100.00;95183.38;5062945;28;20475;-71
2022/11/28 02:10:57;;;;;;;7.38;4.60;;;;;;;1.25;100.00;95180.22;5059890;28;20254;-71
2022/11/28 02:13:39;;;;;;;7.80;4.80;;;;;;;1.28;100.00;95184.22;5056399;28;20306;-71
2022/11/28 02:16:33;;;;;;;10.00;4.22;;;;;;;1.28;100.00;95182.38;5054311;28;20188;-71
2022/11/28 02:19:29;;;;;;;1.10;0.77;;;;;;;1.29;100.00;95181.31;5062550;28;20195;-71
2022/11/28 02:22:03;;;;;;;1.27;1.00;;;;;;;1.26;100.00;95173.81;5059771;28;20187;-72
2022/11/28 02:24:56;;;;;;;0.90;0.90;;;;;;;1.28;100.00;95176.22;5056125;28;20256;-72
2022/11/28 02:27:38;;;;;;;1.67;0.85;;;;;;;1.34;100.00;95181.38;5056546;28;20261;-71
2022/11/28 02:30:14;;;;;;;0.82;0.82;;;;;;;1.27;100.00;95178.09;5058395;28;20211;-72
2022/11/28 02:32:58;;;;;;;1.27;1.17;;;;;;;1.27;100.00;95178.09;5062620;28;20544;-72
2022/11/28 02:35:30;;;;;;;0.30;0.30;;;;;;;1.39;100.00;95181.38;5063051;28;20195;-72
2022/11/28 02:38:05;;;;;;;2.83;1.27;;;;;;;1.31;100.00;95171.19;5049292;28;20258;-71
2022/11/28 02:40:38;;;;;;;0.93;0.93;;;;;;;1.30;100.00;95169.59;5063202;28;20207;-71
2022/11/28 02:43:13;;;;;;;0.40;0.40;;;;;;;1.34;100.00;95168.03;5049495;28;20203;-71
2022/11/28 02:45:47;;;;;;;2.00;1.02;;;;;;;1.37;100.00;95167.47;5062941;28;20264;-71
2022/11/28 02:48:24;;;;;;;0.70;0.57;;;;;;;1.35;100.00;95174.97;5061385;28;20230;-72
2022/11/28 02:50:59;;;;;;;1.65;0.77;;;;;;;1.30;100.00;95172.25;5057078;28;20669;-72
2022/11/28 02:53:32;;;;;;;2.78;0.35;;;;;;;1.25;100.00;95174.88;5056107;28;20226;-71
2022/11/28 02:55:59;;;;;;;0.90;0.88;;;;;;;1.38;100.00;95181.63;5058655;28;20669;-72
2022/11/28 02:58:26;;;;;;;0.80;0.63;;;;;;;1.39;100.00;95184.06;5066536;28;20203;-72
2022/11/28 03:00:54;;;;;;;1.00;1.00;;;;;;;1.31;100.00;95183.72;5058415;28;20196;-72
2022/11/28 03:03:53;;;;;;;0.75;0.75;;;;;;;1.32;100.00;95182.69;5053233;28;20211;-72
2022/11/28 03:06:32;;;;;;;2.72;0.85;;;;;;;1.37;100.00;95183.50;5055512;28;20191;-73
2022/11/28 03:09:29;;;;;;;1.95;0.65;;;;;;;1.42;100.00;95178.22;5059016;28;20292;-72
2022/11/28 03:12:07;;;;;;;0.57;0.50;;;;;;;1.47;100.00;95179.31;5048788;28;20196;-72
2022/11/28 03:14:48;;;;;;;1.83;1.08;;;;;;;1.31;100.00;95184.53;5048910;28;20204;-73
2022/11/28 03:17:21;;;;;;;0.98;0.80;;;;;;;1.35;100.00;95185.66;5061090;28;20719;-73
2022/11/28 03:19:59;;;;;;;0.90;0.90;;;;;;;1.39;100.00;95181.38;5056026;28;20195;-73
2022/11/28 03:22:30;;;;;;;1.40;0.70;;;;;;;1.37;100.00;95178.16;5055626;28;20200;-73
2022/11/28 03:25:06;;;;;;;1.05;0.40;;;;;;;1.26;100.00;95184.50;5060292;28;20204;-73
2022/11/28 03:27:37;;;;;;;1.20;1.10;;;;;;;1.25;100.00;95169.53;5062733;28;20675;-73
2022/11/28 03:30:09;;;;;;;0.70;0.52;;;;;;;1.35;100.00;95180.31;5063215;28;20227;-73
2022/11/28 03:32:39;;;;;;;0.82;0.75;;;;;;;1.38;100.00;95182.44;5058968;28;20199;-73
2022/11/28 03:35:12;;;;;;;0.52;0.52;;;;;;;1.36;100.00;95184.59;5061031;28;20193;-73
2022/11/28 03:37:44;;;;;;;1.08;1.00;;;;;;;1.33;100.00;95185.09;5066385;28;20196;-73
2022/11/28 03:40:15;;;;;;;0.60;0.60;;;;;;;1.14;100.00;95178.53;5065527;28;20930;-72
2022/11/28 03:42:48;;;;;;;1.08;0.98;;;;;;;1.18;100.00;95184.97;5060144;28;20604;-73
2022/11/28 03:45:20;;;;;;;0.98;0.80;;;;;;;1.31;100.00;95181.88;5071589;28;20272;-73
2022/11/28 03:47:51;;;;;;;0.98;0.80;;;;;;;1.30;100.00;95174.91;5061363;28;20195;-73
2022/11/28 03:50:25;;;;;;;1.52;1.02;;;;;;;1.31;100.00;95181.88;5058838;28;20301;-73
2022/11/28 03:52:58;;;;;;;3.75;2.45;;;;;;;1.29;100.00;95181.31;5061660;28;20191;-73
2022/11/28 03:55:30;;;;;;;3.50;2.67;;;;;;;1.33;100.00;95182.41;5066063;28;20195;-73
2022/11/28 03:58:04;;;;;;;0.50;0.45;;;;;;;1.36;100.00;95181.91;5064893;28;20199;-73
2022/11/28 04:00:37;;;;;;;0.30;0.30;;;;;;;1.35;100.00;95177.63;5052054;28;20196;-73
2022/11/28 04:03:11;;;;;;;1.05;0.90;;;;;;;1.35;100.00;95174.16;5052168;28;20274;-73
2022/11/28 04:05:45;;;;;;;1.00;0.70;;;;;;;1.40;100.00;95176.84;5052196;28;20249;-73
2022/11/28 04:08:17;;;;;;;0.98;0.90;;;;;;;1.39;100.00;95176.03;5051523;28;20272;-73
2022/11/28 04:10:48;;;;;;;1.10;0.63;;;;;;;1.46;100.00;95175.03;5051588;28;20603;-73
2022/11/28 04:13:21;;;;;;;0.65;0.52;;;;;;;1.48;100.00;95167.56;5063973;28;20203;-73
2022/11/28 04:15:54;;;;;;;1.38;1.15;;;;;;;1.43;100.00;95166.47;5051525;28;20196;-73
2022/11/28 04:18:27;;;;;;;1.42;1.00;;;;;;;1.37;100.00;95167.47;5051442;28;20210;-73
2022/11/28 04:21:03;;;;;;;0.77;0.57;;;;;;;1.39;100.00;95165.38;5050739;28;20650;-72
2022/11/28 04:23:31;;;;;;;0.75;0.38;;;;;;;1.37;100.00;95172.81;5051429;28;20203;-72
2022/11/28 04:26:04;;;;;;;0.40;0.40;;;;;;;1.37;100.00;95183.50;5063978;28;20199;-72
2022/11/28 04:28:35;;;;;;;0.47;0.47;;;;;;;1.39;100.00;95181.38;5051011;28;20220;-72
2022/11/28 04:31:04;;;;;;;2.42;0.98;;;;;;;1.38;100.00;95177.09;5051171;28;20302;-72
2022/11/28 04:33:36;;;;;;;0.40;0.40;;;;;;;1.36;100.00;95181.91;5050190;28;20706;-72
2022/11/28 04:36:07;;;;;;;0.60;0.60;;;;;;;1.36;100.00;95186.44;5050760;28;20207;-72
2022/11/28 04:38:35;;;;;;;1.48;1.38;;;;;;;1.36;100.00;95187.25;5051257;28;20702;-72
2022/11/28 04:41:08;;;;;;;0.52;0.52;;;;;;;1.39;100.00;95186.72;5055577;28;20662;-71
2022/11/28 04:43:39;;;;;;;2.33;1.23;;;;;;;1.50;100.00;95187.63;5056704;28;20773;-71
2022/11/28 04:46:12;;;;;;;0.55;0.55;;;;;;;1.50;100.00;95187.63;5050648;28;20203;-72
2022/11/28 04:48:39;;;;;;;0.52;0.52;;;;;;;1.57;100.00;95188.19;5050455;28;20687;-72
2022/11/28 04:51:15;;;;;;;0.50;0.50;;;;;;;1.60;100.00;95192.22;5059831;28;20213;-72
2022/11/28 04:53:48;;;;;;;0.43;0.43;;;;;;;1.50;100.00;95192.16;5070794;28;20256;-72
2022/11/28 04:56:21;;;;;;;1.15;0.60;;;;;;;1.41;100.00;95194.47;5070395;28;20198;-73
2022/11/28 04:58:50;;;;;;;0.30;0.30;;;;;;;1.52;100.00;95200.69;5069979;28;20689;-73
2022/11/28 05:01:22;;;;;;;0.55;0.55;;;;;;;1.58;100.00;95194.31;5070555;28;20223;-73
2022/11/28 05:03:49;;;;;;;0.40;0.40;;;;;;;1.46;100.00;95191.03;5070164;28;20600;-73
2022/11/28 05:06:25;;;;;;;0.30;0.30;;;;;;;1.47;100.00;95198.81;5070499;28;20238;-73
2022/11/28 05:08:52;;;;;;;1.15;1.05;;;;;;;1.43;100.00;95203.03;5069710;28;20439;-73
2022/11/28 05:11:20;;;;;;;1.02;0.98;;;;;;;1.51;100.00;95201.75;5070502;28;20211;-73
2022/11/28 05:13:47;;;;;;;1.23;0.95;;;;;;;1.46;100.00;95201.72;5070388;28;20203;-72
2022/11/28 05:16:15;;;;;;;1.10;1.02;;;;;;;1.52;100.00;95203.34;5070480;28;20210;-74
2022/11/28 05:18:42;;;;;;;0.70;0.55;;;;;;;1.57;100.00;95196.19;5070025;28;20203;-73
2022/11/28 05:21:09;;;;;;;0.50;0.50;;;;;;;1.58;100.00;95194.31;5053129;28;20298;-74
2022/11/28 05:23:38;;;;;;;2.30;1.17;;;;;;;1.57;100.00;95187.38;5060997;28;20228;-74
2022/11/28 05:26:06;;;;;;;1.80;0.98;;;;;;;1.49;100.00;95186.00;5057081;28;20272;-74
2022/11/28 05:28:33;;;;;;;0.63;0.63;;;;;;;1.49;100.00;95187.88;5070615;28;20214;-74
2022/11/28 05:31:01;;;;;;;0.70;0.70;;;;;;;1.41;100.00;95183.78;5069514;28;20207;-74
2022/11/28 05:33:29;;;;;;;0.65;0.65;;;;;;;1.46;100.00;95183.03;5069142;28;20296;-73
2022/11/28 05:35:55;;;;;;;0.68;0.68;;;;;;;1.51;100.00;95189.19;5069223;28;20213;-73
2022/11/28 05:38:22;;;;;;;0.25;0.25;;;;;;;1.58;100.00;95194.31;5070225;28;20211;-73
2022/11/28 05:40:53;;;;;;;4.65;1.55;;;;;;;1.58;100.00;95189.00;5070547;28;20207;-75
2022/11/28 05:43:20;;;;;;;0.82;0.82;;;;;;;1.56;100.00;95183.09;5069279;28;20214;-73
2022/11/28 05:45:46;;;;;;;2.50;0.90;;;;;;;1.67;100.00;95185.56;5069635;28;20208;-73
2022/11/28 05:48:13;;;;;;;0.65;0.52;;;;;;;1.66;100.00;95185.81;5069371;28;20231;-73
2022/11/28 05:50:40;;;;;;;0.80;0.80;;;;;;;1.63;100.00;95191.69;5055638;28;20288;-73
2022/11/28 05:53:07;;;;;;;1.75;1.40;;;;;;;1.59;100.00;95191.41;5069726;28;20215;-73
2022/11/28 05:55:34;;;;;;;0.43;0.43;;;;;;;1.54;100.00;95193.22;5069514;28;20203;-73
2022/11/28 05:58:02;;;;;;;0.85;0.63;;;;;;;1.62;100.00;95174.06;5069511;28;20199;-73
2022/11/28 06:00:29;;;;;;;0.65;0.60;;;;;;;1.61;100.00;95188.47;5068928;28;20261;-73
2022/11/28 06:02:56;;;;;;;0.98;0.60;;;;;;;1.54;100.00;95185.22;5069221;28;20259;-73
2022/11/28 06:05:24;;;;;;;0.93;0.90;;;;;;;1.47;100.00;95179.31;5069113;28;20216;-72
2022/11/28 06:07:51;;;;;;;0.65;0.60;;;;;;;1.45;100.00;95184.09;5068492;28;20203;-72
2022/11/28 06:10:18;;;;;;;1.85;1.38;;;;;;;1.48;100.00;95183.59;5048582;28;20313;-74
2022/11/28 06:12:44;;;;;;;0.85;0.85;;;;;;;1.45;100.00;95189.44;5048674;28;20349;-74
2022/11/28 06:15:13;;;;;;;6.00;3.75;;;;;;;1.49;100.00;95186.00;5047888;28;20658;-73
2022/11/28 06:17:39;;;;;;;0.77;0.75;;;;;;;1.49;100.00;95179.88;5050106;28;20493;-73
2022/11/28 06:20:07;;;;;;;1.40;1.08;;;;;;;1.55;100.00;95184.16;5060641;28;20200;-73
2022/11/28 06:22:34;;;;;;;2.10;1.48;;;;;;;1.53;100.00;95186.28;5049966;28;20204;-73
2022/11/28 06:25:01;;;;;;;1.10;0.98;;;;;;;1.54;100.00;95177.22;5049152;28;20207;-72
2022/11/28 06:27:28;;;;;;;1.35;0.90;;;;;;;1.57;100.00;95177.50;5048707;28;20618;-73
2022/11/28 06:29:55;;;;;;;1.05;1.00;;;;;;;1.62;100.00;95184.75;5048889;28;20330;-73
2022/11/28 06:32:23;;;;;;;1.63;1.52;;;;;;;1.67;100.00;95187.44;5061151;28;20665;-73
2022/11/28 06:34:50;;;;;;;0.85;0.85;;;;;;;1.78;100.00;95173.06;5048231;28;20502;-73
2022/11/28 06:37:17;;;;;;;1.45;1.05;;;;;;;1.80;100.00;95178.97;5050861;28;20206;-73
2022/11/28 06:39:44;;;;;;;5.00;1.50;;;;;;;1.78;100.00;95181.09;5058920;28;20217;-72
2022/11/28 06:42:10;;;;;;;4.50;1.88;;;;;;;1.80;100.00;95168.28;5062076;28;20724;-72
2022/11/28 06:44:37;;;;;;;1.10;0.80;;;;;;;1.84;100.00;95166.72;5048314;28;20588;-72
2022/11/28 06:47:04;;;;;;;3.33;1.38;;;;;;;1.79;100.00;95169.34;5048464;28;20215;-73
2022/11/28 06:49:32;;;;;;;2.15;1.67;;;;;;;1.87;100.00;95166.19;5048602;28;20281;-73
2022/11/28 06:51:59;;;;;;;7.18;1.17;;;;;;;1.86;100.00;95167.25;5048849;28;20207;-73
2022/11/28 06:54:25;;;;;;;1.38;1.17;;;;;;;1.81;100.00;95167.22;5048654;28;20220;-73
2022/11/28 06:56:52;;;;;;;2.13;1.85;;;;;;;1.91;100.00;95163.81;5048738;28;20212;-73
2022/11/28 06:59:19;;;;;;;1.25;1.15;;;;;;;1.88;100.00;95167.81;5048725;28;20207;-73
2022/11/28 07:01:46;;;;;;;3.03;1.70;;;;;;;1.94;100.00;95172.09;5062045;28;20207;-74
2022/11/28 07:04:12;;;;;;;1.88;0.88;;;;;;;1.89;99.63;95174.75;5053091;28;20229;-73
2022/11/28 07:06:43;;;;;;;2.40;2.20;;;;;;;1.90;99.23;95165.69;5056130;28;20316;-76
2022/11/28 07:09:10;;;;;;;2.67;1.58;;;;;;;1.94;100.00;95172.09;5054664;28;20199;-72
2022/11/28 07:11:37;;;;;;;2.72;1.45;;;;;;;3.36;100.00;95159.03;5054713;28;20230;-70
2022/11/28 07:14:04;;;;;;;0.90;0.90;;;;;;;3.21;100.00;95161.72;5066274;28;20616;-70
2022/11/28 07:16:32;;;;;;;3.28;1.77;;;;;;;2.68;100.00;95163.00;5056161;28;20199;-71
2022/11/28 07:19:00;;;;;;;3.60;1.05;;;;;;;2.62;99.27;95167.53;5054876;28;20713;-76
2022/11/28 07:21:27;;;;;;;1.23;0.90;;;;;;;2.35;97.81;95172.25;5054594;28;20654;-74
2022/11/28 07:23:57;;;;;;;3.22;1.67;;;;;;;2.26;98.06;95168.50;5055200;28;20643;-73
2022/11/28 07:26:24;;;;;;;1.23;0.95;;;;;;;2.18;97.47;95171.69;5074355;28;20206;-72
2022/11/28 07:28:51;;;;;;;2.13;1.85;;;;;;;2.17;98.12;95170.06;5073813;28;20749;-73
2022/11/28 07:31:20;;;;;;;1.40;1.10;;;;;;;2.19;97.75;95167.94;5074345;28;20230;-74
2022/11/28 07:33:48;;;;;;;1.80;1.70;;;;;;;2.11;98.01;95178.06;5074003;28;20292;-73
2022/11/28 07:36:19;;;;;;;2.10;1.27;;;;;;;2.05;97.32;95167.63;5068277;28;20241;-73
2022/11/28 07:38:47;;;;;;;1.65;1.05;;;;;;;2.02;97.61;95163.59;5053912;28;20208;-73
2022/11/28 07:41:15;;;;;;;1.77;1.27;;;;;;;2.09;97.33;95169.50;5054682;28;20734;-73
2022/11/28 07:43:43;;;;;;;1.10;1.00;;;;;;;2.18;97.73;95163.66;5054860;28;20253;-73
2022/11/28 07:46:11;;;;;;;1.08;0.90;;;;;;;2.11;97.34;95167.38;5062772;28;20207;-75
2022/11/28 07:48:38;;;;;;;2.97;2.17;;;;;;;2.20;97.43;95161.50;5058920;28;20215;-74
2022/11/28 07:51:07;;;;;;;1.38;1.17;;;;;;;2.33;97.55;95169.03;5063480;28;20767;-73
2022/11/28 07:53:33;;;;;;;2.08;1.55;;;;;;;2.43;97.94;95166.41;5074438;28;20260;-73
2022/11/28 07:56:02;;;;;;;2.08;1.52;;;;;;;2.50;97.89;95153.59;5074713;28;20199;-72
2022/11/28 07:58:31;;;;;;;1.13;1.02;;;;;;;2.54;97.28;95154.69;5074731;28;20199;-73
2022/11/28 08:00:58;;;;;;;0.60;0.60;;;;;;;2.36;96.75;95160.50;5074240;28;20211;-75
2022/11/28 08:03:25;;;;;;;1.80;0.77;;;;;;;2.60;97.79;95158.97;5074831;28;20229;-73
2022/11/28 08:05:52;;;;;;;2.10;1.10;;;;;;;2.62;97.23;95161.38;5065272;28;20219;-74
2022/11/28 08:08:19;;;;;;;3.40;1.75;;;;;;;2.48;97.58;95153.84;5073092;28;20344;-75
2022/11/28 08:10:46;;;;;;;1.85;1.38;;;;;;;2.56;98.31;95159.78;5071240;28;20230;-74
2022/11/28 08:13:13;;;;;;;2.35;1.75;;;;;;;2.49;97.90;95158.13;5054922;28;20577;-74
2022/11/28 08:15:42;;;;;;;1.25;0.82;;;;;;;2.55;98.62;95156.28;5051982;28;20540;-74
2022/11/28 08:18:08;;;;;;;1.10;1.00;;;;;;;2.55;98.31;95142.91;5051002;28;20270;-74
2022/11/28 08:20:35;;;;;;;3.28;1.48;;;;;;;2.72;98.27;95154.19;5050732;28;20613;-75
2022/11/28 08:23:02;;;;;;;1.83;1.42;;;;;;;2.83;98.78;95147.78;5051857;28;20200;-75
2022/11/28 08:25:29;;;;;;;3.03;1.88;;;;;;;2.81;98.57;95149.91;5063955;28;20729;-75
2022/11/28 08:27:55;;;;;;;1.80;1.52;;;;;;;2.90;98.29;95146.69;5051065;28;20207;-74
2022/11/28 08:30:22;;;;;;;4.07;1.40;;;;;;;3.01;97.99;95142.97;5050886;28;20638;-74
2022/11/28 08:32:50;;;;;;;3.75;2.42;;;;;;;3.03;97.98;95141.63;5050542;28;20334;-74
2022/11/28 08:35:17;;;;;;;1.02;0.95;;;;;;;3.02;96.43;95149.91;5050596;28;20262;-73
2022/11/28 08:37:44;;;;;;;2.42;1.02;;;;;;;2.97;96.85;95139.22;5050323;28;20227;-73
2022/11/28 08:40:12;;;;;;;2.63;0.98;;;;;;;2.99;98.06;95145.94;5049729;28;20270;-74
2022/11/28 08:42:40;;;;;;;2.40;1.67;;;;;;;3.05;98.13;95139.50;5050649;28;20611;-73
2022/11/28 08:45:11;;;;;;;2.75;1.80;;;;;;;3.19;98.05;95139.75;5050194;28;20207;-75
2022/11/28 08:47:38;;;;;;;0.98;0.80;;;;;;;3.07;96.26;95139.22;5050330;28;20234;-75
2022/11/28 08:50:07;;;;;;;3.20;1.25;;;;;;;3.07;97.87;95137.34;5051405;28;20711;-74
2022/11/28 08:52:34;;;;;;;1.17;0.88;;;;;;;3.17;98.49;95125.84;5070684;28;20604;-75
2022/11/28 08:55:01;;;;;;;1.30;1.20;;;;;;;3.23;98.14;95140.84;5070953;28;20655;-74
2022/11/28 08:57:28;;;;;;;2.00;1.40;;;;;;;3.24;98.33;95137.09;5070323;28;20585;-75
2022/11/28 08:59:54;;;;;;;2.22;1.95;;;;;;;3.33;97.64;95140.81;5069988;28;20214;-73
2022/11/28 09:02:21;;;;;;;2.63;1.25;;;;;;;3.05;95.77;95122.63;5070722;28;20202;-74
2022/11/28 09:04:48;;;;;;;1.42;1.25;;;;;;;3.01;97.78;95121.53;5070392;28;20207;-74
2022/11/28 09:07:16;;;;;;;1.40;1.30;;;;;;;3.14;98.80;95113.78;5070006;28;20635;-74
2022/11/28 09:09:43;;;;;;;1.45;1.25;;;;;;;3.05;98.43;95111.94;5069521;28;20206;-74
2022/11/28 09:12:11;;;;;;;2.38;1.55;;;;;;;2.95;98.41;95104.72;5070454;28;20207;-73
2022/11/28 09:14:38;;;;;;;3.53;1.27;;;;;;;2.98;98.35;95106.06;5056978;28;20196;-74
2022/11/28 09:17:05;;;;;;;3.22;2.50;;;;;;;3.21;99.68;95106.28;5061297;28;20269;-74
2022/11/28 09:19:31;;;;;;;2.28;1.90;;;;;;;3.19;98.35;95108.44;5050258;28;20523;-76
2022/11/28 09:21:58;;;;;;;1.65;1.55;;;;;;;3.31;99.72;95096.63;5049800;28;20269;-74
2022/11/28 09:24:26;;;;;;;1.13;0.82;;;;;;;3.06;97.85;95097.47;5053906;28;20207;-75
2022/11/28 09:26:53;;;;;;;3.33;1.67;;;;;;;3.05;98.29;95098.53;5063169;28;20256;-74
2022/11/28 09:29:20;;;;;;;2.05;1.27;;;;;;;3.00;96.91;95093.22;5053176;28;20843;-74
2022/11/28 09:31:46;;;;;;;0.38;0.38;;;;;;;3.15;97.63;95093.16;5059220;28;20276;-74
2022/11/28 09:34:13;;;;;;;0.95;0.88;;;;;;;3.09;95.71;95086.25;5052916;28;20235;-74
2022/11/28 09:36:40;;;;;;;1.83;1.35;;;;;;;3.18;95.70;95084.63;5049257;28;20204;-74
2022/11/28 09:39:07;;;;;;;1.95;1.13;;;;;;;3.32;94.47;95077.63;5052745;28;20222;-75
2022/11/28 09:41:50;;;;;;;0.68;0.68;;;;;;;3.54;95.09;95077.34;5049420;28;20200;-75
2022/11/28 09:44:23;;;;;;;3.67;2.10;;;;;;;3.71;95.67;95058.22;5050219;28;20233;-75
2022/11/28 09:46:52;;;;;;;0.98;0.95;;;;;;;3.63;92.92;95062.28;5049864;28;20226;-75
2022/11/28 09:49:36;;;;;;;1.02;0.85;;;;;;;3.94;93.63;95054.94;5049053;28;20208;-74
2022/11/28 09:52:10;;;;;;;1.25;0.63;;;;;;;4.42;93.46;95047.97;5050728;28;20571;-73
2022/11/28 09:54:44;;;;;;;2.85;1.15;;;;;;;4.35;88.83;95044.81;5069439;28;20218;-75
2022/11/28 09:57:18;;;;;;;0.65;0.65;;;;;;;4.69;89.75;95035.97;5069188;28;20202;-77
2022/11/28 09:59:46;;;;;;;1.27;0.95;;;;;;;4.31;86.92;95037.59;5068798;28;20207;-76
2022/11/28 10:02:26;;;;;;;1.42;1.05;;;;;;;4.43;87.74;95030.00;5068472;28;20203;-79
2022/11/28 10:05:04;;;;;;;0.88;0.88;;;;;;;4.69;86.58;95028.72;5068858;28;20259;-77
2022/11/28 10:07:43;;;;;;;1.95;1.60;;;;;;;4.97;84.97;95030.63;5068819;28;20774;-77
2022/11/28 10:10:22;;;;;;;0.98;0.80;;;;;;;4.68;85.02;95032.47;5068947;28;20247;-75
2022/11/28 10:13:01;;;;;;;0.55;0.55;;;;;;;5.05;84.63;95033.81;5068392;28;20260;-75
2022/11/28 10:15:45;;;;;;;1.08;1.05;;;;;;;5.36;82.05;95038.56;5068019;28;20203;-75
2022/11/28 10:18:29;;;;;;;0.75;0.75;;;;;;;5.92;82.99;95029.09;5068392;28;20210;-75
2022/11/28 10:21:00;;;;;;;1.13;1.02;;;;;;;5.96;78.53;95025.56;5069083;28;20206;-74
2022/11/28 10:23:32;;;;;;;1.73;1.10;;;;;;;5.47;80.60;95023.13;5063279;28;20199;-74
2022/11/28 10:26:02;;;;;;;0.63;0.60;;;;;;;5.35;80.04;95014.69;5052428;28;20207;-74
2022/11/28 10:28:34;;;;;;;0.88;0.75;;;;;;;5.05;78.33;95026.56;5059895;28;20203;-74
2022/11/28 10:31:07;;;;;;;1.17;1.00;;;;;;;5.13;81.08;95017.06;5050851;28;20302;-74
2022/11/28 10:33:40;;;;;;;0.75;0.70;;;;;;;5.31;78.06;95008.31;5048354;28;20239;-74
2022/11/28 10:36:14;;;;;;;0.40;0.40;;;;;;;5.19;78.94;95010.56;5048428;28;20199;-73
2022/11/28 10:38:40;;;;;;;0.43;0.43;;;;;;;5.16;79.18;95000.41;5048353;28;20196;-75
2022/11/28 10:41:14;;;;;;;0.82;0.80;;;;;;;4.87;77.93;94998.53;5048212;28;20207;-72
2022/11/28 10:43:48;;;;;;;1.35;1.10;;;;;;;4.60;80.98;94992.84;5048364;28;20204;-73
2022/11/28 10:46:50;;;;;;;0.65;0.65;;;;;;;5.00;80.11;94997.06;5049047;28;20258;-73
2022/11/28 10:49:30;;;;;;;1.17;0.85;;;;;;;4.92;79.14;95001.13;5026616;28;20740;-73
2022/11/28 10:52:07;;;;;;;0.55;0.55;;;;;;;5.18;79.37;94992.88;5064948;28;20222;-76
2022/11/28 10:55:07;;;;;;;0.95;0.85;;;;;;;5.11;78.47;94987.00;5056941;28;20191;-73
2022/11/28 10:57:42;;;;;;;1.70;0.82;;;;;;;5.14;79.59;94989.13;5048648;28;20203;-74
2022/11/28 11:00:13;;;;;;;1.77;1.13;;;;;;;4.81;80.49;94988.91;5048223;28;20765;-75
2022/11/28 11:02:44;;;;;;;1.58;1.25;;;;;;;5.00;80.43;94994.38;5048589;28;20261;-72
2022/11/28 11:05:14;;;;;;;1.90;1.15;;;;;;;5.24;79.36;94986.34;5053845;28;20198;-72
2022/11/28 11:07:47;;;;;;;0.93;0.90;;;;;;;5.13;79.36;94990.22;5060632;28;20718;-74
2022/11/28 11:10:18;;;;;;;2.08;1.38;;;;;;;4.84;79.77;94988.34;5047869;28;20298;-73
2022/11/28 11:12:45;;;;;;;1.05;0.95;;;;;;;4.56;80.40;94987.25;5048773;28;20222;-73
2022/11/28 11:15:23;;;;;;;4.43;1.30;;;;;;;4.57;80.74;94982.69;5060850;28;20207;-73
2022/11/28 11:17:50;;;;;;;4.03;1.52;;;;;;;4.70;81.13;94978.53;5061636;28;20195;-73
2022/11/28 11:20:33;;;;;;;0.63;0.63;;;;;;;5.16;80.19;94968.16;5047921;28;20218;-73
2022/11/28 11:23:01;;;;;;;1.88;1.23;;;;;;;5.16;78.54;94965.50;5047893;28;20326;-73
2022/11/28 11:25:31;;;;;;;4.03;1.30;;;;;;;5.16;77.88;94962.81;5046979;28;20261;-74
2022/11/28 11:28:00;;;;;;;0.98;0.88;;;;;;;5.17;77.10;94964.41;5052430;28;20502;-72
2022/11/28 11:30:31;;;;;;;0.77;0.77;;;;;;;5.13;76.68;94958.00;5063248;28;20210;-74
2022/11/28 11:32:59;;;;;;;3.58;1.25;;;;;;;5.02;76.97;94964.56;5053581;28;20259;-74
2022/11/28 11:35:29;;;;;;;0.38;0.38;;;;;;;5.12;75.00;94961.75;5048434;28;20214;-73
2022/11/28 11:38:16;;;;;;;1.40;1.13;;;;;;;4.89;76.02;94958.78;5061255;28;20594;-74
2022/11/28 11:40:43;;;;;;;0.80;0.80;;;;;;;5.09;77.10;94956.97;5047279;28;20215;-74
2022/11/28 11:43:24;;;;;;;0.52;0.52;;;;;;;5.26;76.06;94946.56;5047176;28;20546;-75
2022/11/28 11:46:05;;;;;;;1.92;1.00;;;;;;;5.09;75.11;94947.03;5047569;28;20481;-76
2022/11/28 11:48:36;;;;;;;1.50;1.10;;;;;;;5.05;76.04;94945.22;5047888;28;20223;-73
2022/11/28 11:51:02;;;;;;;2.33;1.10;;;;;;;4.93;76.93;94942.88;5060637;28;20230;-75
2022/11/28 11:53:29;;;;;;;1.40;1.13;;;;;;;5.16;74.75;94946.69;5071491;28;20624;-75